Time;durP1;ratioP1;P1;durP2;ratioP2;P2;SDS_P1;SDS_P2;PMS_P1;PMS_P2;Temp;Humidity;BMP_temperature;BMP_pressure;BME280_temperature;BME280_humidity;BME280_pressure;Samples;Min_cycle;Max_cycle;Signal;HPM_P1;HPM_P2
2024/03/10 00:01:30;;;;;;;19.23;12.23;;;358.70;2329.60;;;;;;5003525;28;20058;-75
2024/03/10 00:03:56;;;;;;;20.35;13.43;;;358.70;2329.60;;;;;;5027713;28;20024;-76
2024/03/10 00:06:22;;;;;;;16.20;10.90;;;358.70;2329.60;;;;;;5008214;28;20023;-77
2024/03/10 00:08:48;;;;;;;24.30;13.68;;;358.50;2329.60;;;;;;5001056;28;20038;-76
2024/03/10 00:11:17;;;;;;;32.30;20.23;;;358.60;2329.60;;;;;;5002073;28;20030;-76
2024/03/10 00:13:43;;;;;;;26.25;14.63;;;358.60;2329.60;;;;;;5007699;28;20451;-78
2024/03/10 00:16:09;;;;;;;26.20;17.40;;;358.60;2329.60;;;;;;4983367;28;20022;-77
2024/03/10 00:18:36;;;;;;;15.55;7.80;;;358.60;2329.60;;;;;;5011156;28;20029;-76
2024/03/10 00:21:03;;;;;;;12.65;9.30;;;358.60;2329.60;;;;;;4981982;28;20192;-77
2024/03/10 00:23:30;;;;;;;22.17;12.02;;;358.60;2329.60;;;;;;5004500;28;20674;-77
2024/03/10 00:25:56;;;;;;;27.67;17.45;;;358.50;2329.60;;;;;;5019940;28;20381;-77
2024/03/10 00:28:22;;;;;;;21.25;13.70;;;358.50;2329.60;;;;;;5003377;28;20213;-77
2024/03/10 00:30:48;;;;;;;45.53;26.48;;;358.40;2329.60;;;;;;4996592;28;20723;-76
2024/03/10 00:33:17;;;;;;;61.58;30.48;;;358.50;2329.60;;;;;;5001155;28;20052;-77
2024/03/10 00:35:43;;;;;;;24.52;14.57;;;358.50;2329.60;;;;;;5014955;28;20029;-76
2024/03/10 00:38:09;;;;;;;20.70;11.48;;;358.50;2329.60;;;;;;5018988;28;20037;-76
2024/03/10 00:40:37;;;;;;;25.17;14.02;;;358.50;2329.60;;;;;;5008973;28;20105;-77
2024/03/10 00:43:03;;;;;;;23.38;14.85;;;358.50;2329.60;;;;;;5008323;28;20108;-76
2024/03/10 00:45:29;;;;;;;49.17;29.17;;;358.50;2329.60;;;;;;5008556;28;20516;-77
2024/03/10 00:47:56;;;;;;;61.40;38.28;;;358.40;2329.60;;;;;;5007895;28;20030;-76
2024/03/10 00:50:22;;;;;;;35.92;21.23;;;333.70;2329.60;;;;;;5008084;28;20072;-76
2024/03/10 00:52:48;;;;;;;22.98;15.40;;;358.40;2329.60;;;;;;5008502;28;20597;-76
2024/03/10 00:55:14;;;;;;;22.13;15.23;;;358.40;2329.60;;;;;;5003242;28;20034;-76
2024/03/10 00:57:40;;;;;;;22.40;15.00;;;358.40;2329.60;;;;;;5007396;28;20087;-76
2024/03/10 01:00:10;;;;;;;19.73;13.60;;;333.70;2329.60;;;;;;5013149;28;20040;-77
2024/03/10 01:02:40;;;;;;;15.82;9.70;;;333.70;2329.60;;;;;;5027953;28;20494;-76
2024/03/10 01:05:07;;;;;;;30.38;17.45;;;333.60;2329.60;;;;;;5025094;28;20033;-76
2024/03/10 01:07:33;;;;;;;34.45;19.55;;;333.60;2329.60;;;;;;5026163;28;20026;-76
2024/03/10 01:09:59;;;;;;;22.70;14.13;;;333.70;2329.60;;;;;;5024916;28;20080;-76
2024/03/10 01:12:25;;;;;;;31.00;17.90;;;333.50;2329.60;;;;;;5024299;28;20464;-76
2024/03/10 01:14:51;;;;;;;25.92;17.77;;;333.50;2329.60;;;;;;5002873;28;20079;-76
2024/03/10 01:17:16;;;;;;;20.45;15.43;;;333.40;2329.60;;;;;;5001636;28;20511;-76
2024/03/10 01:19:44;;;;;;;19.92;14.18;;;333.40;2329.60;;;;;;5027371;28;20032;-76
2024/03/10 01:22:11;;;;;;;23.20;15.98;;;333.30;2329.60;;;;;;5013808;28;20025;-76
2024/03/10 01:24:38;;;;;;;26.42;18.10;;;333.30;2329.60;;;;;;5008757;28;20026;-76
2024/03/10 01:27:04;;;;;;;13.00;9.60;;;333.30;2329.60;;;;;;4987516;28;20129;-76
2024/03/10 01:29:30;;;;;;;13.10;9.18;;;333.30;2329.60;;;;;;4988526;28;20166;-76
2024/03/10 01:31:57;;;;;;;17.45;11.48;;;333.20;2329.60;;;;;;4989038;28;20134;-76
2024/03/10 01:34:23;;;;;;;22.98;13.93;;;333.30;2329.60;;;;;;4988596;28;20023;-76
2024/03/10 01:36:48;;;;;;;28.60;14.98;;;333.20;2329.60;;;;;;4988823;28;20041;-76
2024/03/10 01:39:14;;;;;;;23.23;15.27;;;333.20;2329.60;;;;;;4988995;28;20031;-77
2024/03/10 01:41:40;;;;;;;22.90;13.32;;;333.20;2329.60;;;;;;4988831;28;20483;-77
2024/03/10 01:44:06;;;;;;;23.52;14.07;;;333.20;2329.60;;;;;;4988749;28;20034;-77
2024/03/10 01:46:36;;;;;;;18.33;13.15;;;333.10;2329.60;;;;;;4987331;28;20034;-76
2024/03/10 01:49:03;;;;;;;24.25;13.93;;;333.10;2329.60;;;;;;4988345;28;20137;-76
2024/03/10 01:51:30;;;;;;;20.13;12.30;;;333.00;2329.60;;;;;;4988925;28;20373;-76
2024/03/10 01:53:57;;;;;;;16.50;10.65;;;333.00;2329.60;;;;;;4988852;28;20023;-76
2024/03/10 01:56:24;;;;;;;15.63;10.10;;;332.90;2329.60;;;;;;4988947;28;20022;-77
2024/03/10 01:58:52;;;;;;;15.52;10.32;;;333.00;2329.60;;;;;;4988279;28;20396;-76
2024/03/10 02:01:21;;;;;;;16.00;8.55;;;333.00;2329.60;;;;;;4991042;28;20564;-76
2024/03/10 02:03:51;;;;;;;14.40;9.70;;;333.10;2329.60;;;;;;4991806;28;20019;-75
2024/03/10 02:06:17;;;;;;;17.55;10.65;;;333.20;2329.60;;;;;;4992546;28;20523;-76
2024/03/10 02:08:45;;;;;;;19.63;12.48;;;333.20;2329.60;;;;;;4991756;28;20043;-77
2024/03/10 02:11:11;;;;;;;21.92;13.63;;;333.20;2329.60;;;;;;4992139;28;20373;-76
2024/03/10 02:13:37;;;;;;;22.13;13.35;;;333.20;2329.60;;;;;;4991774;28;20031;-77
2024/03/10 02:16:07;;;;;;;25.60;14.35;;;333.20;2329.60;;;;;;4991929;28;20018;-77
2024/03/10 02:18:33;;;;;;;30.20;18.17;;;333.20;2329.60;;;;;;4991249;28;20829;-76
2024/03/10 02:21:00;;;;;;;31.17;18.27;;;333.20;2329.60;;;;;;4991872;28;20118;-76
2024/03/10 02:23:42;;;;;;;25.33;15.32;;;333.20;2329.60;;;;;;4991904;28;20081;-76
2024/03/10 02:26:09;;;;;;;24.02;16.02;;;333.20;2329.60;;;;;;4992667;28;20026;-77
2024/03/10 02:28:46;;;;;;;23.55;14.85;;;333.20;2329.60;;;;;;5011150;28;20069;-76
2024/03/10 02:47:40;;;;;;;23.55;13.05;;;333.20;2329.60;;;;;;5011002;28;20053;-76
2024/03/10 02:50:06;;;;;;;20.52;9.18;;;333.10;2329.60;;;;;;5010686;28;20094;-77
2024/03/10 02:52:35;;;;;;;16.80;10.00;;;333.00;2329.60;;;;;;5010777;28;20030;-77
2024/03/10 02:55:02;;;;;;;12.02;9.15;;;332.90;2329.60;;;;;;5010494;28;20022;-76
2024/03/10 02:57:33;;;;;;;13.95;8.95;;;308.10;2304.00;;;;;;5010715;28;20396;-76
2024/03/10 02:59:59;;;;;;;13.07;8.98;;;332.80;2329.60;;;;;;5010570;28;20105;-77
2024/03/10 03:02:25;;;;;;;13.38;7.60;;;333.20;2329.60;;;;;;5010790;28;20380;-76
2024/03/10 03:04:51;;;;;;;17.45;15.43;;;332.90;2329.60;;;;;;5010035;28;20032;-77
2024/03/10 03:07:18;;;;;;;13.73;10.52;;;332.90;2329.60;;;;;;5010797;28;20018;-76
2024/03/10 03:09:45;;;;;;;13.23;9.60;;;333.00;2329.60;;;;;;5010392;28;20096;-77
2024/03/10 03:12:11;;;;;;;11.13;9.10;;;333.10;2329.60;;;;;;5009923;28;20507;-76
2024/03/10 03:14:37;;;;;;;10.68;8.05;;;333.10;2329.60;;;;;;5010325;28;20025;-77
2024/03/10 03:17:05;;;;;;;10.90;8.07;;;333.10;2329.60;;;;;;5010310;28;20029;-77
2024/03/10 03:19:32;;;;;;;12.85;9.27;;;333.10;2329.60;;;;;;5010075;28;20468;-76
2024/03/10 03:22:00;;;;;;;12.45;8.43;;;333.20;2329.60;;;;;;5010308;28;20022;-76
2024/03/10 03:24:26;;;;;;;8.77;6.65;;;333.00;2329.60;;;;;;5010351;28;20026;-76
2024/03/10 03:26:53;;;;;;;7.30;5.53;;;333.00;2329.60;;;;;;5009649;28;20034;-77
2024/03/10 03:29:22;;;;;;;14.88;7.28;;;333.10;2329.60;;;;;;5010066;28;20129;-76
2024/03/10 03:31:48;;;;;;;11.90;8.23;;;333.00;2329.60;;;;;;5010295;28;20037;-76
2024/03/10 03:34:15;;;;;;;8.85;6.75;;;333.00;2329.60;;;;;;5009890;28;20412;-76
2024/03/10 03:36:41;;;;;;;11.68;7.03;;;332.90;2329.60;;;;;;5009892;28;20041;-77
2024/03/10 03:39:11;;;;;;;11.60;6.65;;;332.90;2329.60;;;;;;5010076;28;20026;-76
2024/03/10 03:41:40;;;;;;;10.82;7.95;;;332.80;2329.60;;;;;;5010066;28;20018;-76
2024/03/10 03:44:07;;;;;;;10.93;9.80;;;332.80;2329.60;;;;;;5009757;28;20029;-76
2024/03/10 03:46:33;;;;;;;7.63;6.22;;;332.80;2329.60;;;;;;4991973;28;20030;-77
2024/03/10 03:48:59;;;;;;;8.70;5.60;;;332.80;2329.60;;;;;;5009402;28;20044;-77
2024/03/10 03:51:25;;;;;;;5.75;5.15;;;308.10;2304.00;;;;;;5010054;28;20100;-78
2024/03/10 03:53:51;;;;;;;9.85;6.93;;;332.80;2329.60;;;;;;5009521;28;20096;-76
2024/03/10 03:56:17;;;;;;;6.07;4.07;;;332.80;2329.60;;;;;;4997105;28;20428;-75
2024/03/10 03:58:43;;;;;;;4.22;3.08;;;332.80;2329.60;;;;;;4991726;28;20389;-76
2024/03/10 04:01:10;;;;;;;5.70;2.90;;;332.80;2329.60;;;;;;5009532;28;20033;-76
2024/03/10 04:03:36;;;;;;;4.88;2.63;;;332.80;2329.60;;;;;;5009141;28;20021;-76
2024/03/10 04:06:05;;;;;;;4.93;2.42;;;332.80;2329.60;;;;;;5009560;28;20025;-76
2024/03/10 04:08:31;;;;;;;4.38;2.55;;;332.80;2329.60;;;;;;5008796;28;20125;-76
2024/03/10 04:10:57;;;;;;;5.20;2.33;;;332.90;2329.60;;;;;;5009534;28;20096;-76
2024/03/10 04:13:24;;;;;;;7.07;2.95;;;332.90;2329.60;;;;;;5009126;28;20473;-76
2024/03/10 04:15:50;;;;;;;6.32;3.00;;;333.00;2329.60;;;;;;5009214;28;20018;-76
2024/03/10 04:18:16;;;;;;;3.40;2.05;;;333.10;2329.60;;;;;;5008840;28;20467;-77
2024/03/10 04:20:45;;;;;;;4.40;2.50;;;333.10;2329.60;;;;;;5008866;28;20017;-77
2024/03/10 04:23:11;;;;;;;9.02;3.38;;;333.20;2329.60;;;;;;5008296;28;20558;-77
2024/03/10 04:25:37;;;;;;;4.30;2.65;;;333.20;2329.60;;;;;;5009177;28;20018;-76
2024/03/10 04:28:03;;;;;;;5.60;3.42;;;333.20;2329.60;;;;;;5007216;28;20049;-76
2024/03/10 04:30:30;;;;;;;5.28;3.55;;;333.20;2329.60;;;;;;4997301;28;20049;-76
2024/03/10 04:32:55;;;;;;;5.93;3.22;;;333.20;2329.60;;;;;;5009164;28;20018;-76
2024/03/10 04:35:21;;;;;;;6.35;3.65;;;333.20;2329.60;;;;;;5008793;28;20018;-76
2024/03/10 04:37:47;;;;;;;4.65;2.95;;;333.10;2329.60;;;;;;5009060;28;20053;-75
2024/03/10 04:40:16;;;;;;;5.80;3.83;;;333.10;2329.60;;;;;;5008828;28;20026;-76
2024/03/10 04:42:42;;;;;;;6.03;3.17;;;333.10;2329.60;;;;;;5008496;28;20435;-76
2024/03/10 04:45:11;;;;;;;3.63;2.75;;;333.00;2329.60;;;;;;5009386;28;20033;-76
2024/03/10 04:47:38;;;;;;;5.03;3.20;;;333.00;2329.60;;;;;;5008842;28;20022;-75
2024/03/10 04:50:05;;;;;;;4.05;2.70;;;332.90;2329.60;;;;;;5008770;28;20034;-76
2024/03/10 04:52:31;;;;;;;7.28;3.55;;;333.00;2329.60;;;;;;5008720;28;20018;-76
2024/03/10 04:54:57;;;;;;;4.18;2.50;;;333.00;2329.60;;;;;;5008880;28;20029;-76
2024/03/10 04:57:24;;;;;;;5.35;3.30;;;333.00;2329.60;;;;;;5008780;28;20558;-76
2024/03/10 04:59:50;;;;;;;5.32;3.30;;;333.00;2329.60;;;;;;5008882;28;20053;-76
2024/03/10 05:02:16;;;;;;;6.32;3.28;;;333.00;2329.60;;;;;;5008658;28;20428;-76
2024/03/10 05:04:43;;;;;;;4.68;3.13;;;333.00;2329.60;;;;;;5008548;28;20068;-75
2024/03/10 05:07:09;;;;;;;4.80;3.33;;;333.00;2329.60;;;;;;5008600;28;20072;-76
2024/03/10 05:09:35;;;;;;;10.77;7.13;;;333.00;2329.60;;;;;;5008640;28;20559;-76
2024/03/10 05:12:03;;;;;;;8.25;7.07;;;332.90;2329.60;;;;;;5008528;28;20041;-76
2024/03/10 05:14:29;;;;;;;5.68;3.78;;;332.90;2329.60;;;;;;5008637;28;20040;-76
2024/03/10 05:16:59;;;;;;;6.18;3.50;;;332.90;2329.60;;;;;;5008842;28;20022;-77
2024/03/10 05:19:25;;;;;;;4.85;2.97;;;332.90;2329.60;;;;;;5008776;28;20120;-76
2024/03/10 05:21:51;;;;;;;4.72;2.75;;;333.00;2329.60;;;;;;5008611;28;20202;-77
2024/03/10 05:24:17;;;;;;;4.57;3.30;;;333.00;2329.60;;;;;;5008303;28;20135;-76
2024/03/10 05:26:43;;;;;;;7.05;3.38;;;333.00;2329.60;;;;;;5008287;28;20042;-76
2024/03/10 05:29:09;;;;;;;5.95;3.65;;;333.00;2329.60;;;;;;5008571;28;20477;-75
2024/03/10 05:31:35;;;;;;;5.50;2.92;;;333.00;2329.60;;;;;;5008568;28;20022;-75
2024/03/10 05:34:03;;;;;;;5.43;2.90;;;333.00;2329.60;;;;;;5008451;28;20129;-76
2024/03/10 05:36:29;;;;;;;5.03;3.33;;;333.00;2329.60;;;;;;5012355;28;20037;-76
2024/03/10 05:38:55;;;;;;;23.05;17.50;;;333.10;2329.60;;;;;;5011849;28;20026;-75
2024/03/10 05:41:21;;;;;;;38.63;26.40;;;333.10;2329.60;;;;;;5012240;28;20056;-76
2024/03/10 05:43:47;;;;;;;75.85;51.45;;;333.10;2329.60;;;;;;5012146;28;20149;-76
2024/03/10 05:46:14;;;;;;;69.22;49.15;;;333.70;2329.60;;;;;;5012007;28;20022;-76
2024/03/10 05:48:42;;;;;;;48.95;39.28;;;333.20;2329.60;;;;;;5011975;28;20022;-76
2024/03/10 05:51:13;;;;;;;23.73;21.23;;;333.30;2329.60;;;;;;5011880;28;20494;-76
2024/03/10 05:53:39;;;;;;;11.70;9.75;;;333.30;2329.60;;;;;;5011922;28;20161;-76
2024/03/10 05:56:07;;;;;;;8.38;7.03;;;333.60;2329.60;;;;;;5012191;28;20037;-76
2024/03/10 05:58:34;;;;;;;7.65;6.82;;;333.60;2329.60;;;;;;5011722;28;20345;-76
2024/03/10 06:01:03;;;;;;;11.85;7.55;;;333.50;2329.60;;;;;;5011576;28;20030;-76
2024/03/10 06:03:29;;;;;;;11.13;6.93;;;333.60;2329.60;;;;;;5011411;28;20022;-75
2024/03/10 06:05:55;;;;;;;8.80;6.45;;;333.70;2329.60;;;;;;5011788;28;20029;-76
2024/03/10 06:08:21;;;;;;;10.77;8.68;;;358.40;2329.60;;;;;;5011535;28;20022;-75
2024/03/10 06:10:48;;;;;;;9.65;6.68;;;358.50;2329.60;;;;;;5011862;28;20037;-75
2024/03/10 06:13:14;;;;;;;8.57;5.32;;;358.50;2329.60;;;;;;5011689;28;20022;-76
2024/03/10 06:15:40;;;;;;;13.55;6.97;;;358.50;2329.60;;;;;;5011348;28;20433;-76
2024/03/10 06:18:15;;;;;;;11.38;8.70;;;358.50;2329.60;;;;;;5011278;28;20392;-76
2024/03/10 06:26:22;;;;;;;21.92;15.88;;;384.30;2329.60;;;;;;5011196;28;20037;-76
2024/03/10 06:28:51;;;;;;;10.65;6.30;;;436.10;2227.20;;;;;;4993234;28;20125;-76
2024/03/10 06:31:21;;;;;;;9.40;6.63;;;486.50;2073.60;;;;;;5011261;28;20370;-76
2024/03/10 06:33:50;;;;;;;7.40;6.18;;;512.50;1920.00;;;;;;5011228;28;20021;-77
2024/03/10 06:36:16;;;;;;;15.77;11.73;;;538.40;1843.20;;;;;;5011181;28;20036;-76
2024/03/10 06:38:43;;;;;;;17.77;13.30;;;563.70;1792.00;;;;;;5010951;28;20026;-77
2024/03/10 06:41:09;;;;;;;25.80;20.75;;;588.90;1715.20;;;;;;5010913;28;20022;-77
2024/03/10 06:43:37;;;;;;;46.13;36.38;;;614.50;1689.60;;;;;;5011229;28;20018;-76
2024/03/10 06:46:03;;;;;;;29.98;26.20;;;615.30;1612.80;;;;;;5010173;28;20033;-76
2024/03/10 06:48:30;;;;;;;17.85;14.80;;;640.70;1561.60;;;;;;5011073;28;20018;-77
2024/03/10 06:50:56;;;;;;;18.38;15.05;;;640.50;1561.60;;;;;;5010972;28;20476;-77
2024/03/10 06:53:24;;;;;;;10.23;7.75;;;665.60;1536.00;;;;;;5011096;28;20026;-77
2024/03/10 06:55:52;;;;;;;7.78;6.93;;;666.20;1510.40;;;;;;5010797;28;20113;-77
2024/03/10 06:58:19;;;;;;;7.13;4.15;;;666.40;1484.80;;;;;;5011146;28;20053;-76
2024/03/10 07:00:45;;;;;;;9.35;6.85;;;691.40;1459.20;;;;;;5010577;28;20026;-78
2024/03/10 07:03:11;;;;;;;11.00;7.68;;;691.60;1459.20;;;;;;5010462;28;20416;-78
2024/03/10 07:05:39;;;;;;;10.27;8.20;;;692.00;1408.00;;;;;;5010568;28;20117;-76
2024/03/10 07:08:07;;;;;;;12.15;8.95;;;716.90;1433.60;;;;;;5010662;28;20176;-78
2024/03/10 07:10:35;;;;;;;13.68;9.52;;;717.20;1408.00;;;;;;5010126;28;20030;-76
2024/03/10 07:13:03;;;;;;;9.40;5.82;;;716.90;1408.00;;;;;;5010654;28;20026;-78
2024/03/10 07:15:30;;;;;;;9.50;8.25;;;717.00;1408.00;;;;;;5010338;28;20022;-78
2024/03/10 07:17:56;;;;;;;12.10;10.85;;;716.90;1408.00;;;;;;5010931;28;20376;-76
2024/03/10 07:20:22;;;;;;;12.00;9.80;;;717.40;1356.80;;;;;;5010115;28;20149;-78
2024/03/10 07:22:48;;;;;;;19.38;15.25;;;717.70;1356.80;;;;;;5010468;28;20030;-77
2024/03/10 07:25:14;;;;;;;12.63;10.63;;;743.10;1331.20;;;;;;5010266;28;20022;-77
2024/03/10 07:27:47;;;;;;;20.45;17.27;;;743.30;1331.20;;;;;;5010246;28;20038;-79
2024/03/10 07:30:13;;;;;;;13.13;11.63;;;768.80;1280.00;;;;;;5005835;28;20078;-79
2024/03/10 07:32:39;;;;;;;14.25;8.88;;;768.90;1280.00;;;;;;5004927;28;20061;-80
2024/03/10 07:35:08;;;;;;;10.27;8.85;;;768.80;1280.00;;;;;;5009898;28;20447;-80
2024/03/10 07:37:34;;;;;;;14.80;11.02;;;793.70;1280.00;;;;;;5010145;28;20018;-77
2024/03/10 07:40:00;;;;;;;11.15;9.80;;;794.30;1280.00;;;;;;5009634;28;20018;-76
2024/03/10 07:42:26;;;;;;;12.55;11.23;;;794.20;1280.00;;;;;;4988314;28;20124;-79
2024/03/10 07:44:52;;;;;;;13.80;10.50;;;794.10;1254.40;;;;;;5009790;28;20098;-79
2024/03/10 07:47:18;;;;;;;12.75;10.88;;;794.10;1254.40;;;;;;5010341;28;20141;-79
2024/03/10 07:49:44;;;;;;;10.55;9.30;;;793.70;1254.40;;;;;;5009458;28;20037;-79
2024/03/10 07:52:11;;;;;;;11.25;7.78;;;794.00;1254.40;;;;;;5008937;28;20022;-78
2024/03/10 07:54:37;;;;;;;14.73;10.10;;;793.70;1254.40;;;;;;5008227;28;20018;-76
2024/03/10 07:57:03;;;;;;;10.10;7.40;;;768.70;1254.40;;;;;;4999627;28;20169;-78
2024/03/10 07:59:29;;;;;;;10.13;8.32;;;793.70;1254.40;;;;;;5007002;28;20036;-79
2024/03/10 08:01:55;;;;;;;10.20;8.32;;;794.20;1254.40;;;;;;4999097;28;20030;-79
2024/03/10 08:04:22;;;;;;;8.63;7.72;;;794.50;1228.80;;;;;;5005758;28;20025;-79
2024/03/10 08:06:48;;;;;;;10.60;9.35;;;819.30;1203.20;;;;;;4997775;28;20026;-78
2024/03/10 08:09:15;;;;;;;9.55;8.25;;;819.30;1228.80;;;;;;5007470;28;20084;-80
2024/03/10 08:11:44;;;;;;;14.18;9.63;;;819.30;1203.20;;;;;;5009237;28;20454;-80
2024/03/10 08:14:10;;;;;;;9.88;8.77;;;793.70;1254.40;;;;;;4991303;28;20026;-80
2024/03/10 08:16:37;;;;;;;10.85;7.28;;;793.60;1280.00;;;;;;5009413;28;20376;-81
2024/03/10 08:19:03;;;;;;;9.13;7.07;;;793.70;1254.40;;;;;;5008907;28;20373;-80
2024/03/10 08:21:29;;;;;;;10.05;7.72;;;793.70;1254.40;;;;;;5009310;28;20483;-80
2024/03/10 08:23:55;;;;;;;17.45;13.43;;;768.60;1254.40;;;;;;4991637;28;20032;-79
2024/03/10 08:26:22;;;;;;;16.83;14.27;;;768.90;1254.40;;;;;;5009081;28;20065;-80
2024/03/10 08:28:49;;;;;;;11.82;9.73;;;768.50;1254.40;;;;;;5009044;28;20022;-80
2024/03/10 08:31:16;;;;;;;10.13;8.63;;;768.60;1254.40;;;;;;5009351;28;20129;-81
2024/03/10 08:33:42;;;;;;;10.65;7.72;;;768.70;1254.40;;;;;;5008446;28;20025;-79
2024/03/10 08:36:09;;;;;;;8.40;7.00;;;794.00;1228.80;;;;;;5011809;28;20113;-79
2024/03/10 08:38:37;;;;;;;10.93;9.30;;;743.30;1280.00;;;;;;5013358;28;20431;-79
2024/03/10 08:41:04;;;;;;;6.95;6.25;;;742.90;1305.60;;;;;;4992880;28;20117;-80
2024/03/10 08:43:31;;;;;;;13.07;9.40;;;743.10;1280.00;;;;;;5016514;28;20026;-80
2024/03/10 08:45:57;;;;;;;15.73;10.35;;;742.50;1331.20;;;;;;5015973;28;20156;-78
2024/03/10 08:48:25;;;;;;;11.43;8.00;;;742.40;1331.20;;;;;;5009300;28;20135;-78
2024/03/10 08:50:51;;;;;;;10.27;6.47;;;717.00;1331.20;;;;;;4991132;28;20044;-78
2024/03/10 08:53:17;;;;;;;11.70;8.40;;;691.30;1356.80;;;;;;5011409;28;20093;-79
2024/03/10 08:55:44;;;;;;;13.00;10.90;;;666.00;1408.00;;;;;;5012984;28;20113;-79
2024/03/10 08:58:11;;;;;;;13.00;8.63;;;640.70;1408.00;;;;;;5011425;28;20037;-80
2024/03/10 09:00:38;;;;;;;17.15;12.45;;;640.50;1433.60;;;;;;5021405;28;20160;-80
2024/03/10 09:03:04;;;;;;;15.82;9.55;;;640.20;1459.20;;;;;;5026668;28;20057;-79
2024/03/10 09:05:31;;;;;;;15.93;10.15;;;615.20;1484.80;;;;;;5027037;28;20045;-79
2024/03/10 09:07:57;;;;;;;64.78;36.00;;;615.10;1484.80;;;;;;5027295;28;20017;-78
2024/03/10 09:10:25;;;;;;;17.90;11.75;;;614.70;1510.40;;;;;;5017687;28;20048;-79
2024/03/10 09:12:51;;;;;;;20.17;13.75;;;614.70;1510.40;;;;;;5006632;28;20022;-77
2024/03/10 09:15:18;;;;;;;20.88;11.55;;;614.80;1536.00;;;;;;5012532;28;20036;-77
2024/03/10 09:17:45;;;;;;;24.90;17.50;;;614.90;1536.00;;;;;;5012856;28;20373;-78
2024/03/10 09:20:13;;;;;;;26.08;19.08;;;614.90;1536.00;;;;;;5012368;28;20024;-77
2024/03/10 09:22:43;;;;;;;12.57;6.80;;;615.00;1510.40;;;;;;5012791;28;20033;-78
2024/03/10 09:25:20;;;;;;;7.90;5.65;;;614.60;1536.00;;;;;;5012460;28;20072;-79
2024/03/10 09:27:51;;;;;;;26.85;15.48;;;614.50;1536.00;;;;;;5014575;28;20056;-77
2024/03/10 09:30:21;;;;;;;29.88;18.08;;;589.60;1561.60;;;;;;5012401;28;20064;-79
2024/03/10 09:32:50;;;;;;;35.47;20.33;;;589.70;1561.60;;;;;;5012638;28;20096;-77
2024/03/10 09:35:34;;;;;;;21.92;13.73;;;614.40;1587.20;;;;;;5012498;28;20033;-78
2024/03/10 09:38:05;;;;;;;102.75;67.22;;;589.40;1561.60;;;;;;5011941;28;20026;-78
2024/03/10 09:40:32;;;;;;;43.60;28.50;;;589.60;1561.60;;;;;;5011975;28;20034;-78
2024/03/10 09:43:05;;;;;;;20.52;14.30;;;589.60;1536.00;;;;;;5012372;28;20048;-79
2024/03/10 09:45:41;;;;;;;18.63;11.50;;;589.30;1536.00;;;;;;5012166;28;20018;-78
2024/03/10 09:48:10;;;;;;;34.17;16.02;;;589.30;1536.00;;;;;;5012126;28;20026;-79
2024/03/10 09:50:39;;;;;;;24.45;17.67;;;589.20;1536.00;;;;;;4994103;28;20096;-78
2024/03/10 09:53:05;;;;;;;32.60;16.88;;;589.40;1561.60;;;;;;5011954;28;20482;-77
2024/03/10 09:55:31;;;;;;;15.63;7.78;;;589.40;1561.60;;;;;;5011843;28;20476;-77
2024/03/10 09:58:01;;;;;;;24.05;12.27;;;589.00;1561.60;;;;;;5012107;28;20021;-79
2024/03/10 10:00:28;;;;;;;29.42;15.43;;;564.10;1561.60;;;;;;5011700;28;20125;-78
2024/03/10 10:03:14;;;;;;;15.32;8.85;;;564.10;1587.20;;;;;;5011708;28;20109;-78
2024/03/10 10:05:44;;;;;;;26.88;17.38;;;564.10;1587.20;;;;;;5019137;28;20033;-78
2024/03/10 10:08:12;;;;;;;14.60;9.23;;;564.10;1587.20;;;;;;5010387;28;20097;-72
2024/03/10 10:10:51;;;;;;;42.78;27.70;;;564.10;1587.20;;;;;;4996455;28;20503;-72
2024/03/10 10:13:24;;;;;;;24.83;15.68;;;589.40;1587.20;;;;;;4997225;28;20025;-77
2024/03/10 10:15:53;;;;;;;;;;;614.40;1561.60;;;;;;5012040;28;20022;-77
2024/03/10 10:18:21;;;;;;;31.63;18.92;;;614.70;1561.60;;;;;;5011440;28;19916;-76
2024/03/10 10:20:54;;;;;;;8.85;4.10;;;614.70;1510.40;;;;;;5010665;28;20026;-76
2024/03/10 10:23:23;;;;;;;16.42;5.07;;;614.40;1536.00;;;;;;5011308;28;20099;-77
2024/03/10 10:25:53;;;;;;;20.48;8.60;;;589.70;1510.40;;;;;;4993871;28;20029;-77
2024/03/10 10:28:19;;;;;;;13.15;3.90;;;614.40;1510.40;;;;;;5011133;28;20056;-77
2024/03/10 10:30:45;;;;;;;12.40;6.10;;;614.50;1510.40;;;;;;5011199;28;20041;-76
2024/03/10 10:33:12;;;;;;;21.67;12.18;;;614.70;1536.00;;;;;;5010982;28;20029;-77
2024/03/10 10:35:42;;;;;;;20.42;11.98;;;614.80;1536.00;;;;;;5011563;28;20018;-76
2024/03/10 10:38:11;;;;;;;22.38;11.55;;;614.60;1536.00;;;;;;5011207;28;20022;-77
2024/03/10 10:40:40;;;;;;;9.10;4.60;;;614.50;1510.40;;;;;;5011284;28;20487;-76
2024/03/10 10:43:06;;;;;;;19.60;9.95;;;614.50;1561.60;;;;;;5011137;28;20018;-76
2024/03/10 10:45:35;;;;;;;36.38;20.85;;;614.40;1484.80;;;;;;5010907;28;20029;-76
2024/03/10 10:48:01;;;;;;;18.02;9.85;;;614.40;1510.40;;;;;;5010313;28;20022;-77
2024/03/10 10:50:37;;;;;;;9.93;4.25;;;589.70;1510.40;;;;;;5000497;28;20041;-76
2024/03/10 10:53:06;;;;;;;23.20;13.65;;;589.40;1536.00;;;;;;5023085;28;20118;-77
2024/03/10 10:55:33;;;;;;;19.65;9.10;;;589.30;1536.00;;;;;;5010793;28;20105;-74
2024/03/10 10:58:04;;;;;;;10.52;6.40;;;589.50;1536.00;;;;;;5010656;28;20028;-76
2024/03/10 11:00:30;;;;;;;44.83;29.38;;;589.60;1561.60;;;;;;5010658;28;20080;-76
2024/03/10 11:03:16;;;;;;;49.75;41.35;;;589.70;1536.00;;;;;;5005000;28;20026;-76
2024/03/10 11:06:02;;;;;;;59.63;41.15;;;614.40;1536.00;;;;;;5012365;28;20022;-76
2024/03/10 11:08:33;;;;;;;194.63;143.23;;;614.50;1484.80;;;;;;5002458;28;20032;-76
2024/03/10 11:10:59;;;;;;;18.05;11.13;;;614.50;1510.40;;;;;;5004723;28;20492;-75
2024/03/10 11:13:28;;;;;;;68.65;48.60;;;614.50;1536.00;;;;;;5010903;28;20026;-76
2024/03/10 11:16:13;;;;;;;134.25;97.70;;;614.40;1510.40;;;;;;5001051;28;20088;-76
2024/03/10 11:18:43;;;;;;;26.23;8.85;;;614.40;1484.80;;;;;;4996528;28;20026;-76
2024/03/10 11:21:17;;;;;;;21.38;13.05;;;589.70;1561.60;;;;;;5024811;28;20033;-75
2024/03/10 11:23:48;;;;;;;133.38;112.72;;;589.40;1536.00;;;;;;5029297;28;20440;-76
2024/03/10 11:26:20;;;;;;;116.32;103.60;;;589.20;1536.00;;;;;;4995537;28;20473;-76
2024/03/10 11:28:49;;;;;;;57.50;51.25;;;589.00;1536.00;;;;;;5005137;28;20022;-76
2024/03/10 11:31:19;;;;;;;8.40;4.45;;;588.90;1561.60;;;;;;5028522;28;20029;-76
2024/03/10 11:33:51;;;;;;;12.65;9.45;;;564.10;1536.00;;;;;;5010588;28;20061;-76
2024/03/10 11:36:22;;;;;;;19.00;15.75;;;588.80;1561.60;;;;;;5018173;28;20043;-75
2024/03/10 11:38:49;;;;;;;14.02;7.57;;;564.10;1561.60;;;;;;5023784;28;20533;-74
2024/03/10 11:41:15;;;;;;;25.42;18.60;;;588.80;1561.60;;;;;;5009652;28;20038;-74
2024/03/10 11:43:42;;;;;;;17.33;10.75;;;589.00;1536.00;;;;;;5009648;28;20022;-76
2024/03/10 11:46:37;;;;;;;14.98;9.65;;;589.20;1536.00;;;;;;5009420;28;20161;-75
2024/03/10 11:49:03;;;;;;;10.60;5.50;;;589.40;1536.00;;;;;;5009233;28;20120;-76
2024/03/10 11:51:31;;;;;;;21.00;6.65;;;589.20;1536.00;;;;;;4991325;28;20049;-76
2024/03/10 11:53:58;;;;;;;275.95;146.32;;;589.20;1536.00;;;;;;5009515;28;20032;-76
2024/03/10 11:56:24;;;;;;;28.77;14.75;;;589.10;1510.40;;;;;;5009361;28;20080;-76
2024/03/10 11:58:51;;;;;;;20.90;9.38;;;589.00;1536.00;;;;;;5008801;28;20018;-77
2024/03/10 12:01:18;;;;;;;82.57;41.78;;;564.10;1561.60;;;;;;5009557;28;20034;-76
2024/03/10 12:03:46;;;;;;;70.38;33.75;;;563.90;1561.60;;;;;;5008659;28;20026;-76
2024/03/10 12:06:14;;;;;;;44.45;20.17;;;563.90;1587.20;;;;;;5008978;28;20029;-77
2024/03/10 12:08:42;;;;;;;61.53;32.33;;;564.00;1587.20;;;;;;4991306;28;20392;-77
2024/03/10 12:11:12;;;;;;;74.30;38.78;;;564.00;1561.60;;;;;;5009542;28;20503;-76
2024/03/10 12:13:45;;;;;;;44.80;27.67;;;564.10;1561.60;;;;;;5008730;28;20481;-76
2024/03/10 12:16:12;;;;;;;30.40;17.33;;;564.10;1561.60;;;;;;5008856;28;20376;-76
2024/03/10 12:18:43;;;;;;;39.47;21.38;;;588.80;1536.00;;;;;;5008751;28;20061;-76
2024/03/10 12:21:14;;;;;;;38.45;25.25;;;588.80;1561.60;;;;;;5009100;28;20496;-76
2024/03/10 12:23:42;;;;;;;21.88;11.80;;;588.80;1536.00;;;;;;5008875;28;20072;-77
2024/03/10 12:26:09;;;;;;;42.42;26.23;;;588.80;1561.60;;;;;;5008703;28;20080;-76
2024/03/10 12:28:36;;;;;;;21.92;10.32;;;588.80;1561.60;;;;;;5008809;28;20053;-76
2024/03/10 12:31:12;;;;;;;36.40;19.60;;;588.80;1561.60;;;;;;5008903;28;20042;-76